Time;durP1;ratioP1;P1;durP2;ratioP2;P2;SDS_P1;SDS_P2;PMS_P1;PMS_P2;Temp;Humidity;BMP_temperature;BMP_pressure;BME280_temperature;BME280_humidity;BME280_pressure;Samples;Min_cycle;Max_cycle;Signal;HPM_P1;HPM_P2
2022/04/20 00:00:16;;;;;;;0.85;0.60;;;21.10;49.50;;;;;;5033578;28;20068;-57
2022/04/20 00:02:41;;;;;;;0.43;0.40;;;21.10;49.50;;;;;;5034425;28;20045;-57
2022/04/20 00:05:07;;;;;;;1.30;0.80;;;21.10;49.60;;;;;;5034428;28;20073;-56
2022/04/20 00:07:35;;;;;;;2.35;0.60;;;21.10;49.60;;;;;;5033704;28;20473;-57
2022/04/20 00:10:01;;;;;;;;;;;21.10;49.60;;;;;;5034353;28;20501;-57
2022/04/20 00:12:26;;;;;;;1.55;0.60;;;21.00;49.50;;;;;;5034068;28;19921;-57
2022/04/20 00:14:52;;;;;;;1.83;0.60;;;21.00;49.60;;;;;;5033444;28;20048;-57
2022/04/20 00:17:18;;;;;;;0.80;0.40;;;21.00;49.60;;;;;;5034410;28;20033;-57
2022/04/20 00:19:44;;;;;;;1.50;0.50;;;21.00;49.60;;;;;;5034104;28;20045;-57
2022/04/20 00:22:09;;;;;;;1.08;0.50;;;21.00;49.60;;;;;;5032987;28;20168;-57
2022/04/20 00:24:35;;;;;;;1.30;0.60;;;21.00;49.60;;;;;;5034193;28;20042;-56
2022/04/20 00:27:00;;;;;;;1.50;0.68;;;21.00;50.30;;;;;;5033741;28;20042;-56
2022/04/20 00:29:26;;;;;;;2.78;0.75;;;21.00;49.60;;;;;;5032074;28;20045;-57
2022/04/20 00:31:51;;;;;;;1.85;0.50;;;21.00;49.60;;;;;;5033496;28;20171;-57
2022/04/20 00:34:17;;;;;;;2.20;0.55;;;21.00;49.60;;;;;;5033806;28;20154;-57
2022/04/20 00:36:42;;;;;;;0.93;0.55;;;21.00;50.30;;;;;;5032800;28;20482;-57
2022/04/20 00:39:08;;;;;;;1.95;0.57;;;21.00;49.60;;;;;;5032974;28;20045;-57
2022/04/20 00:41:33;;;;;;;1.77;0.60;;;21.00;49.60;;;;;;5033793;28;20041;-57
2022/04/20 00:43:59;;;;;;;1.90;0.50;;;21.00;50.30;;;;;;5031592;28;20041;-57
2022/04/20 00:46:25;;;;;;;1.00;0.50;;;21.00;49.60;;;;;;5032479;28;20500;-57
2022/04/20 00:48:51;;;;;;;2.35;0.57;;;20.90;49.60;;;;;;5033423;28;20037;-57
2022/04/20 00:51:17;;;;;;;0.68;0.40;;;20.90;49.60;;;;;;5032751;28;20041;-57
2022/04/20 00:53:42;;;;;;;2.15;0.68;;;20.90;49.60;;;;;;5032851;28;20046;-56
2022/04/20 00:56:08;;;;;;;1.17;0.60;;;20.90;49.60;;;;;;5033273;28;20072;-56
2022/04/20 00:58:34;;;;;;;1.13;0.57;;;20.90;49.60;;;;;;5032918;28;20524;-57
2022/04/20 01:01:00;;;;;;;0.95;0.50;;;20.90;49.60;;;;;;5031900;28;20075;-57
2022/04/20 01:03:26;;;;;;;1.77;0.43;;;20.90;49.60;;;;;;5031502;28;20074;-57
2022/04/20 01:05:51;;;;;;;1.85;0.60;;;20.90;49.60;;;;;;5031662;28;20034;-57
2022/04/20 01:08:17;;;;;;;1.52;0.50;;;20.90;49.60;;;;;;5033384;28;20439;-57
2022/04/20 01:10:42;;;;;;;1.95;0.60;;;20.90;49.70;;;;;;5032272;28;20049;-57
2022/04/20 01:13:08;;;;;;;1.15;0.57;;;20.90;49.70;;;;;;5033354;28;20042;-57
2022/04/20 01:15:34;;;;;;;2.60;0.50;;;20.90;49.70;;;;;;5033180;28;20041;-57
2022/04/20 01:18:08;;;;;;;1.48;0.68;;;20.90;49.60;;;;;;5032318;28;20045;-57
2022/04/20 01:20:34;;;;;;;2.88;0.60;;;20.80;49.60;;;;;;5032923;28;20041;-57
2022/04/20 01:23:00;;;;;;;2.92;0.63;;;20.80;49.60;;;;;;5032879;28;20041;-57
2022/04/20 01:25:25;;;;;;;1.02;0.50;;;20.80;49.60;;;;;;5031562;28;20123;-57
2022/04/20 01:27:51;;;;;;;1.27;0.50;;;20.80;49.60;;;;;;5031400;28;20060;-57
2022/04/20 01:30:16;;;;;;;1.10;0.45;;;20.80;49.60;;;;;;5031890;28;20103;-57
2022/04/20 01:32:42;;;;;;;1.23;0.55;;;20.80;49.60;;;;;;5031382;28;20057;-57
2022/04/20 01:35:08;;;;;;;1.10;0.60;;;20.80;49.60;;;;;;5033056;28;20037;-57
2022/04/20 01:37:34;;;;;;;1.38;0.50;;;20.80;49.60;;;;;;5032834;28;20112;-56
2022/04/20 01:39:59;;;;;;;0.85;0.68;;;20.80;49.60;;;;;;5031652;28;20469;-56
2022/04/20 01:42:25;;;;;;;2.25;0.45;;;20.80;49.60;;;;;;5032751;28;20136;-57
2022/04/20 01:44:50;;;;;;;1.33;0.60;;;20.80;49.60;;;;;;5032577;28;20049;-57
2022/04/20 01:47:16;;;;;;;1.67;0.60;;;20.80;49.60;;;;;;5031707;28;20087;-57
2022/04/20 01:49:42;;;;;;;1.33;0.43;;;20.70;49.60;;;;;;5032548;28;20033;-56
2022/04/20 01:52:07;;;;;;;0.95;0.50;;;20.70;49.60;;;;;;5032745;28;20497;-57
2022/04/20 01:54:33;;;;;;;1.83;0.50;;;20.70;49.60;;;;;;5031651;28;20049;-57
2022/04/20 01:56:58;;;;;;;2.03;0.60;;;20.70;49.60;;;;;;5032171;28;20068;-56
2022/04/20 01:59:24;;;;;;;1.35;0.50;;;20.70;49.60;;;;;;5032729;28;20045;-57
2022/04/20 02:04:34;;;;;;;1.25;0.43;;;20.70;49.70;;;;;;5032026;28;20050;-57
2022/04/20 02:06:59;;;;;;;1.27;0.57;;;20.70;49.70;;;;;;5034100;28;20481;-57
2022/04/20 02:09:25;;;;;;;1.83;0.50;;;20.70;49.70;;;;;;5036257;28;20065;-57
2022/04/20 02:11:51;;;;;;;1.25;0.50;;;20.70;49.70;;;;;;5036250;28;20072;-57
2022/04/20 02:14:16;;;;;;;0.93;0.50;;;20.70;49.70;;;;;;5036054;28;20045;-57
2022/04/20 02:16:42;;;;;;;2.40;0.57;;;20.60;49.70;;;;;;5036380;28;20030;-57
2022/04/20 02:19:07;;;;;;;0.88;0.50;;;20.60;49.80;;;;;;5036566;28;20086;-56
2022/04/20 02:21:33;;;;;;;1.55;0.70;;;20.60;49.80;;;;;;5035661;28;20171;-57
2022/04/20 02:23:58;;;;;;;1.52;0.70;;;20.60;49.80;;;;;;5035995;28;20116;-57
2022/04/20 02:26:23;;;;;;;1.13;0.50;;;20.60;49.80;;;;;;5036490;28;20044;-57
2022/04/20 02:28:49;;;;;;;1.08;0.45;;;20.60;49.80;;;;;;5035516;28;20489;-57
2022/04/20 02:31:16;;;;;;;0.55;0.40;;;20.60;49.80;;;;;;5036081;28;20056;-57
2022/04/20 02:33:42;;;;;;;1.73;0.60;;;20.60;49.80;;;;;;5035812;28;20508;-57
2022/04/20 02:36:07;;;;;;;1.20;0.50;;;20.60;49.70;;;;;;5035288;28;20489;-57
2022/04/20 02:38:34;;;;;;;1.50;0.60;;;20.60;49.70;;;;;;5036220;28;20052;-57
2022/04/20 02:40:59;;;;;;;1.95;0.82;;;20.60;49.80;;;;;;5034674;28;20069;-57
2022/04/20 02:43:25;;;;;;;1.33;0.60;;;20.60;49.80;;;;;;5035276;28;20127;-56
2022/04/20 02:45:50;;;;;;;0.85;0.60;;;20.60;49.80;;;;;;5035908;28;20046;-57
2022/04/20 02:48:16;;;;;;;0.85;0.40;;;20.50;49.80;;;;;;5035992;28;20145;-57
2022/04/20 02:50:43;;;;;;;1.55;0.57;;;20.60;49.80;;;;;;5034679;28;20052;-57
2022/04/20 02:53:08;;;;;;;2.00;0.65;;;20.50;49.80;;;;;;5035805;28;20046;-56
2022/04/20 02:55:34;;;;;;;1.58;0.52;;;20.50;49.80;;;;;;5035936;28;20531;-57
2022/04/20 02:57:59;;;;;;;1.40;0.50;;;20.60;49.90;;;;;;5034629;28;20106;-57
2022/04/20 03:00:25;;;;;;;1.90;0.68;;;20.50;49.80;;;;;;5035738;28;20539;-57
2022/04/20 03:02:50;;;;;;;2.10;0.70;;;20.50;49.90;;;;;;5035479;28;20409;-57
2022/04/20 03:05:16;;;;;;;1.38;0.60;;;20.50;49.90;;;;;;5034994;28;20095;-57
2022/04/20 03:07:41;;;;;;;0.65;0.40;;;20.50;49.80;;;;;;5035348;28;20045;-57
2022/04/20 03:10:07;;;;;;;1.05;0.50;;;20.50;49.90;;;;;;5034882;28;20095;-57
2022/04/20 03:12:33;;;;;;;1.25;0.50;;;20.50;49.90;;;;;;5035657;28;20092;-57
2022/04/20 03:14:58;;;;;;;1.02;0.47;;;20.50;49.90;;;;;;5035156;28;20051;-56
2022/04/20 03:17:24;;;;;;;0.50;0.50;;;20.50;49.90;;;;;;5034162;28;20099;-57
2022/04/20 03:19:50;;;;;;;2.10;0.60;;;20.50;49.90;;;;;;5035259;28;20124;-56
2022/04/20 03:22:16;;;;;;;1.30;0.60;;;20.50;49.90;;;;;;5033975;28;20085;-57
2022/04/20 03:24:41;;;;;;;1.17;0.60;;;20.50;49.90;;;;;;5034416;28;20091;-57
2022/04/20 03:27:07;;;;;;;1.30;0.50;;;20.50;50.00;;;;;;5035326;28;20052;-56
2022/04/20 03:29:32;;;;;;;0.82;0.50;;;20.40;49.90;;;;;;5035444;28;20133;-56
2022/04/20 03:31:58;;;;;;;1.48;0.50;;;20.40;49.90;;;;;;5033697;28;20883;-56
2022/04/20 03:34:23;;;;;;;1.48;0.63;;;20.40;49.90;;;;;;5034818;28;20083;-56
2022/04/20 03:36:49;;;;;;;1.50;0.60;;;20.40;49.90;;;;;;5034730;28;20075;-56
2022/04/20 03:39:14;;;;;;;0.90;0.50;;;20.40;50.30;;;;;;5034477;28;20033;-56
2022/04/20 03:41:40;;;;;;;0.93;0.50;;;20.40;49.90;;;;;;5034521;28;20047;-56
2022/04/20 03:44:06;;;;;;;0.90;0.50;;;20.40;50.00;;;;;;5034763;28;20176;-56
2022/04/20 03:46:31;;;;;;;1.30;0.50;;;20.40;50.00;;;;;;5034082;28;20053;-56
2022/04/20 03:48:57;;;;;;;2.30;0.60;;;20.40;50.00;;;;;;5033345;28;20069;-56
2022/04/20 03:51:22;;;;;;;2.05;0.55;;;20.40;50.00;;;;;;5034569;28;20049;-56
2022/04/20 03:53:48;;;;;;;1.35;0.70;;;20.40;50.00;;;;;;5033889;28;20127;-56
2022/04/20 03:56:13;;;;;;;1.25;0.60;;;20.40;50.00;;;;;;5034655;28;20045;-56
2022/04/20 03:58:39;;;;;;;1.00;0.57;;;20.40;49.90;;;;;;5034159;28;20041;-56
2022/04/20 04:01:05;;;;;;;1.30;0.60;;;20.30;49.80;;;;;;5032672;28;20050;-56
2022/04/20 04:03:30;;;;;;;1.02;0.50;;;20.30;49.80;;;;;;5034114;28;20445;-56
2022/04/20 04:05:57;;;;;;;1.33;0.50;;;20.30;50.20;;;;;;5033479;28;20044;-57
2022/04/20 04:08:23;;;;;;;1.02;0.50;;;20.30;49.80;;;;;;5033351;28;20483;-57
2022/04/20 04:10:49;;;;;;;1.10;0.60;;;20.40;49.90;;;;;;5034198;28;20045;-56
2022/04/20 04:13:15;;;;;;;1.33;0.63;;;20.40;49.80;;;;;;5033630;28;20048;-56
2022/04/20 04:15:41;;;;;;;1.48;0.60;;;20.40;49.90;;;;;;5033932;28;20049;-57
2022/04/20 04:18:06;;;;;;;0.70;0.50;;;20.40;49.80;;;;;;5034181;28;20115;-57
2022/04/20 04:20:32;;;;;;;1.58;0.50;;;20.40;49.80;;;;;;5031919;28;20037;-57
2022/04/20 04:22:57;;;;;;;1.48;0.70;;;20.40;49.80;;;;;;5033949;28;20049;-56
2022/04/20 04:25:23;;;;;;;0.80;0.60;;;20.40;49.80;;;;;;5034043;28;20068;-57
2022/04/20 04:27:48;;;;;;;1.83;0.60;;;20.40;49.80;;;;;;5032941;28;20436;-57
2022/04/20 04:30:14;;;;;;;1.40;0.60;;;20.40;49.80;;;;;;5033295;28;20435;-57
2022/04/20 04:32:40;;;;;;;1.73;0.60;;;20.40;49.80;;;;;;5033379;28;20087;-57
2022/04/20 04:35:06;;;;;;;1.10;0.55;;;20.40;49.80;;;;;;5032776;28;20090;-57
2022/04/20 04:37:34;;;;;;;1.58;0.80;;;20.40;49.80;;;;;;5033637;28;20385;-57
2022/04/20 04:39:59;;;;;;;1.50;0.50;;;20.40;49.80;;;;;;5033739;28;20045;-57
2022/04/20 04:42:25;;;;;;;1.15;0.47;;;20.40;49.90;;;;;;5032981;28;20117;-56
2022/04/20 04:44:51;;;;;;;1.20;0.55;;;20.40;49.90;;;;;;5033694;28;20049;-57
2022/04/20 04:50:00;;;;;;;1.55;0.60;;;20.40;49.90;;;;;;5032533;28;20045;-56
2022/04/20 04:52:27;;;;;;;1.08;0.70;;;20.40;49.90;;;;;;5033341;28;20132;-56
2022/04/20 04:54:53;;;;;;;1.50;0.70;;;20.40;49.80;;;;;;5048521;28;20046;-57
2022/04/20 04:57:18;;;;;;;1.30;0.60;;;20.40;49.80;;;;;;5032566;28;20128;-57
2022/04/20 04:59:44;;;;;;;1.33;0.50;;;20.50;50.00;;;;;;5033392;28;20048;-57
2022/04/20 05:02:09;;;;;;;0.82;0.60;;;20.50;49.90;;;;;;5033184;28;20047;-56
2022/04/20 05:04:36;;;;;;;2.20;0.70;;;20.50;50.00;;;;;;5032846;28;20381;-56
2022/04/20 05:07:02;;;;;;;0.90;0.60;;;20.50;49.90;;;;;;5032996;28;20069;-57
2022/04/20 05:09:28;;;;;;;1.73;0.73;;;20.50;49.80;;;;;;5033262;28;20052;-58
2022/04/20 05:11:54;;;;;;;1.55;0.75;;;20.60;49.80;;;;;;5032733;28;20038;-57
2022/04/20 05:14:20;;;;;;;1.27;0.70;;;20.60;49.70;;;;;;5033360;28;20045;-57
2022/04/20 05:16:45;;;;;;;2.45;0.80;;;20.60;49.40;;;;;;5032355;28;20467;-56
2022/04/20 05:19:11;;;;;;;2.25;0.80;;;20.60;49.10;;;;;;5033047;28;20060;-56
2022/04/20 05:21:36;;;;;;;2.25;0.70;;;20.70;49.00;;;;;;5033111;28;20087;-57
2022/04/20 05:24:02;;;;;;;2.45;0.80;;;20.70;49.00;;;;;;5031869;28;20545;-57
2022/04/20 05:26:27;;;;;;;2.15;0.60;;;20.70;48.90;;;;;;5033138;28;20087;-56
2022/04/20 05:28:53;;;;;;;0.98;0.50;;;20.70;49.00;;;;;;5032950;28;20068;-57
2022/04/20 05:31:19;;;;;;;2.78;0.70;;;20.70;49.10;;;;;;5031859;28;20049;-56
2022/04/20 05:33:44;;;;;;;1.70;0.70;;;20.70;49.20;;;;;;5032892;28;20054;-56
2022/04/20 05:36:11;;;;;;;2.58;0.80;;;20.70;49.30;;;;;;5032953;28;20155;-56
2022/04/20 05:41:40;;;;;;;2.75;0.73;;;20.70;49.30;;;;;;5032704;28;20050;-56
2022/04/20 05:44:09;;;;;;;3.00;0.95;;;20.70;49.20;;;;;;5032823;28;20088;-56
2022/04/20 05:46:35;;;;;;;3.63;0.63;;;20.70;49.20;;;;;;5032177;28;20072;-56
2022/04/20 05:49:01;;;;;;;2.88;0.82;;;20.70;49.20;;;;;;5032443;28;20072;-56
2022/04/20 05:51:26;;;;;;;2.95;0.80;;;20.70;49.30;;;;;;5032396;28;20121;-56
2022/04/20 05:53:52;;;;;;;0.88;0.52;;;20.80;49.60;;;;;;5031602;28;20053;-56
2022/04/20 05:56:17;;;;;;;3.05;0.60;;;20.80;49.70;;;;;;5032344;28;20367;-56
2022/04/20 05:58:46;;;;;;;2.35;0.85;;;20.80;49.80;;;;;;5028727;28;20042;-56
2022/04/20 06:01:11;;;;;;;3.72;0.93;;;20.80;49.90;;;;;;5026801;28;20451;-56
2022/04/20 06:03:37;;;;;;;2.78;0.82;;;20.80;49.90;;;;;;5032654;28;20124;-56
2022/04/20 06:06:03;;;;;;;1.77;0.88;;;20.80;50.00;;;;;;5031360;28;20041;-56
2022/04/20 06:08:30;;;;;;;2.65;0.70;;;20.80;50.10;;;;;;5032688;28;20053;-57
2022/04/20 06:10:57;;;;;;;2.63;0.88;;;20.90;50.20;;;;;;5032065;28;20129;-56
2022/04/20 06:13:24;;;;;;;2.22;1.10;;;20.90;50.30;;;;;;5031510;28;20424;-56
2022/04/20 06:15:49;;;;;;;6.32;0.85;;;20.90;50.30;;;;;;5032051;28;20497;-56
2022/04/20 06:18:15;;;;;;;1.83;0.68;;;20.90;50.30;;;;;;5031321;28;20056;-59
2022/04/20 06:20:40;;;;;;;4.28;1.27;;;20.90;50.50;;;;;;5031576;28;20095;-57
2022/04/20 06:23:06;;;;;;;4.15;0.73;;;20.90;50.50;;;;;;5032407;28;20049;-56
2022/04/20 06:25:31;;;;;;;2.92;0.80;;;21.00;50.40;;;;;;5032071;28;20104;-56
2022/04/20 06:27:57;;;;;;;3.60;1.00;;;21.00;50.40;;;;;;5031190;28;20053;-56
2022/04/20 06:30:22;;;;;;;2.53;0.80;;;21.00;50.40;;;;;;5032381;28;20041;-57
2022/04/20 06:32:48;;;;;;;1.65;0.80;;;21.00;50.50;;;;;;5032222;28;20103;-57
2022/04/20 06:35:13;;;;;;;2.88;0.90;;;21.00;50.50;;;;;;5031501;28;20045;-57
2022/04/20 06:37:39;;;;;;;2.95;0.80;;;21.10;50.70;;;;;;5032075;28;20492;-57
2022/04/20 06:40:05;;;;;;;5.97;0.85;;;21.10;50.70;;;;;;5032258;28;20415;-57
2022/04/20 06:42:30;;;;;;;3.67;1.10;;;21.10;50.80;;;;;;5020799;28;20045;-56
2022/04/20 06:44:56;;;;;;;2.35;0.75;;;21.10;50.80;;;;;;5022347;28;20042;-56
2022/04/20 06:47:22;;;;;;;1.35;0.70;;;21.10;50.70;;;;;;5029424;28;20050;-57
2022/04/20 06:49:47;;;;;;;2.83;0.98;;;21.10;50.70;;;;;;5031023;28;20042;-57
2022/04/20 07:00:28;;;;;;;2.85;1.10;;;21.20;50.70;;;;;;5035911;28;20120;-56
2022/04/20 07:03:03;;;;;;;4.03;0.90;;;21.20;50.70;;;;;;5034680;28;20056;-56
2022/04/20 07:05:28;;;;;;;1.67;0.88;;;21.20;50.70;;;;;;5035662;28;20080;-56
2022/04/20 07:07:54;;;;;;;4.03;0.98;;;21.20;50.60;;;;;;5034255;28;20041;-56
2022/04/20 07:10:19;;;;;;;2.30;0.90;;;21.20;50.50;;;;;;5034722;28;20041;-56
2022/04/20 07:12:45;;;;;;;1.52;0.73;;;21.30;50.60;;;;;;5035235;28;20045;-56
2022/04/20 07:15:10;;;;;;;1.60;0.80;;;21.30;50.70;;;;;;5035454;28;20099;-56
2022/04/20 07:17:36;;;;;;;2.17;0.88;;;21.30;50.70;;;;;;5034708;28;20045;-57
2022/04/20 07:20:02;;;;;;;3.92;0.70;;;21.30;50.80;;;;;;5033849;28;20041;-56
2022/04/20 07:22:28;;;;;;;3.45;1.10;;;21.30;50.80;;;;;;5035339;28;20130;-57
2022/04/20 07:24:54;;;;;;;1.73;0.70;;;21.30;50.70;;;;;;5033051;28;20197;-56
2022/04/20 07:27:19;;;;;;;1.73;0.85;;;21.30;50.70;;;;;;5034953;28;20135;-56
2022/04/20 07:29:45;;;;;;;3.40;0.80;;;21.40;50.80;;;;;;5034806;28;20057;-57
2022/04/20 07:32:10;;;;;;;2.28;0.80;;;21.40;50.80;;;;;;5033921;28;20065;-57
2022/04/20 07:34:35;;;;;;;2.90;0.70;;;21.40;50.80;;;;;;5035110;28;20049;-57
2022/04/20 07:37:01;;;;;;;1.88;1.10;;;21.40;50.80;;;;;;5034346;28;20037;-57
2022/04/20 07:39:26;;;;;;;2.95;0.90;;;21.40;50.80;;;;;;5034321;28;20134;-57
2022/04/20 07:41:52;;;;;;;2.35;0.95;;;21.40;50.70;;;;;;5034940;28;20046;-56
2022/04/20 07:44:17;;;;;;;4.65;1.00;;;21.40;50.50;;;;;;5033834;28;20049;-56
2022/04/20 07:46:43;;;;;;;3.80;0.85;;;21.50;50.60;;;;;;5034754;28;20038;-56
2022/04/20 07:51:53;;;;;;;1.75;0.80;;;21.50;50.40;;;;;;5033741;28;20469;-56
2022/04/20 07:54:18;;;;;;;2.20;0.88;;;21.50;50.40;;;;;;5035023;28;20037;-56
2022/04/20 07:56:44;;;;;;;1.90;0.80;;;21.50;50.40;;;;;;5034645;28;20057;-56
2022/04/20 07:59:09;;;;;;;3.00;0.80;;;21.50;50.40;;;;;;5034079;28;20053;-56
2022/04/20 08:01:35;;;;;;;2.85;0.70;;;21.50;50.40;;;;;;5034515;28;20045;-56
2022/04/20 08:04:00;;;;;;;2.95;1.00;;;21.50;50.30;;;;;;5026355;28;20501;-56
2022/04/20 08:06:27;;;;;;;3.15;0.90;;;21.50;50.40;;;;;;5024576;28;20048;-56
2022/04/20 08:08:52;;;;;;;3.97;0.88;;;21.50;50.30;;;;;;5022961;28;20124;-57
2022/04/20 08:11:18;;;;;;;1.77;0.70;;;21.50;50.30;;;;;;5024524;28;20121;-57
2022/04/20 08:16:29;;;;;;;3.90;0.80;;;21.60;50.40;;;;;;5028052;28;20481;-57
2022/04/20 08:18:54;;;;;;;2.00;0.75;;;21.60;50.40;;;;;;5033987;28;20046;-56
2022/04/20 08:21:20;;;;;;;3.08;0.90;;;21.60;50.40;;;;;;5033064;28;20037;-57
2022/04/20 08:23:45;;;;;;;3.13;0.70;;;21.60;50.10;;;;;;5033963;28;20089;-56
2022/04/20 08:26:11;;;;;;;3.35;0.88;;;21.60;50.00;;;;;;5033862;28;20180;-57
2022/04/20 08:28:36;;;;;;;3.20;1.00;;;21.60;49.90;;;;;;5033514;28;20136;-56
2022/04/20 08:31:02;;;;;;;1.67;0.70;;;21.60;49.90;;;;;;5033619;28;20420;-56
2022/04/20 08:33:27;;;;;;;2.03;0.75;;;21.60;49.80;;;;;;5033381;28;20049;-56
2022/04/20 08:35:53;;;;;;;3.83;0.93;;;21.60;49.80;;;;;;5033719;28;20041;-56
2022/04/20 08:38:18;;;;;;;1.48;0.70;;;21.60;49.80;;;;;;5034063;28;20080;-56
2022/04/20 08:40:44;;;;;;;2.45;0.80;;;21.60;49.80;;;;;;5032544;28;20077;-57
2022/04/20 08:43:09;;;;;;;1.83;0.70;;;21.70;49.80;;;;;;5033974;28;20045;-57
2022/04/20 08:45:37;;;;;;;1.38;0.65;;;21.60;49.70;;;;;;5032243;28;20045;-57
2022/04/20 08:48:03;;;;;;;3.40;0.80;;;21.70;49.70;;;;;;5032925;28;20080;-57
2022/04/20 08:50:29;;;;;;;3.30;0.90;;;21.60;49.70;;;;;;5032552;28;20300;-57
2022/04/20 08:52:55;;;;;;;3.75;0.85;;;21.70;49.80;;;;;;5033124;28;20511;-57
2022/04/20 08:55:20;;;;;;;1.42;0.52;;;21.70;49.70;;;;;;5031195;28;20046;-57
2022/04/20 08:57:50;;;;;;;2.47;0.80;;;21.70;49.70;;;;;;5033279;28;20040;-57
2022/04/20 09:00:21;;;;;;;2.20;0.70;;;21.70;49.70;;;;;;5033674;28;20120;-57
2022/04/20 09:02:57;;;;;;;3.42;0.80;;;21.70;49.60;;;;;;5032333;28;20037;-57
2022/04/20 09:05:29;;;;;;;1.88;0.70;;;21.70;49.60;;;;;;5033525;28;20517;-57
2022/04/20 09:07:56;;;;;;;1.48;0.70;;;21.70;49.60;;;;;;5033361;28;20045;-57
2022/04/20 09:10:21;;;;;;;2.53;0.90;;;21.70;49.60;;;;;;5032428;28;20087;-56
2022/04/20 09:12:50;;;;;;;2.75;0.70;;;21.70;49.60;;;;;;5033222;28;20049;-57
2022/04/20 09:15:31;;;;;;;2.00;0.70;;;21.70;49.50;;;;;;5031463;28;20060;-57
2022/04/20 09:17:57;;;;;;;2.60;0.80;;;21.70;49.50;;;;;;5032196;28;20038;-57
2022/04/20 09:20:22;;;;;;;3.05;0.88;;;21.70;49.50;;;;;;5032883;28;20042;-57
2022/04/20 09:23:04;;;;;;;2.58;0.88;;;21.70;49.50;;;;;;5031081;28;20131;-57
2022/04/20 09:25:37;;;;;;;2.85;0.98;;;21.70;49.40;;;;;;5033043;28;20440;-57
2022/04/20 09:28:03;;;;;;;1.60;0.80;;;21.70;49.50;;;;;;5032669;28;20526;-57
2022/04/20 09:30:32;;;;;;;3.22;0.80;;;21.70;49.40;;;;;;5031969;28;20124;-57
2022/04/20 09:32:57;;;;;;;2.88;0.70;;;21.70;49.40;;;;;;5032596;28;20159;-56
2022/04/20 09:35:23;;;;;;;1.98;0.70;;;21.70;49.30;;;;;;5032949;28;20511;-57
2022/04/20 09:38:05;;;;;;;1.98;0.70;;;21.70;49.30;;;;;;5030669;28;20041;-57
2022/04/20 09:40:35;;;;;;;2.70;0.70;;;21.70;49.30;;;;;;5033059;28;20121;-57
2022/04/20 09:43:02;;;;;;;1.95;0.60;;;21.70;49.30;;;;;;5032528;28;20042;-57
2022/04/20 09:45:27;;;;;;;3.75;0.88;;;21.70;49.30;;;;;;5032113;28;20041;-57
2022/04/20 09:50:37;;;;;;;1.30;0.60;;;21.70;49.20;;;;;;5032311;28;20410;-57
2022/04/20 09:53:06;;;;;;;2.45;0.90;;;21.70;49.20;;;;;;5031541;28;20037;-57
2022/04/20 09:55:34;;;;;;;2.22;0.70;;;21.70;49.30;;;;;;5032809;28;20084;-56
2022/04/20 09:58:19;;;;;;;2.85;1.02;;;21.70;48.90;;;;;;5031406;28;20041;-57
2022/04/20 10:00:45;;;;;;;2.50;0.90;;;21.70;47.70;;;;;;5032501;28;20041;-57
2022/04/20 10:03:11;;;;;;;2.97;1.00;;;21.70;47.20;;;;;;5032483;28;20057;-57
2022/04/20 10:05:37;;;;;;;3.70;1.13;;;21.60;46.40;;;;;;5030529;28;20136;-57
2022/04/20 10:08:03;;;;;;;2.15;1.08;;;21.60;45.90;;;;;;5032381;28;20052;-57
2022/04/20 10:10:30;;;;;;;2.05;0.80;;;21.60;45.80;;;;;;5032230;28;20034;-57
2022/04/20 10:12:55;;;;;;;1.80;0.98;;;21.60;45.90;;;;;;5031270;28;20412;-57
2022/04/20 10:18:08;;;;;;;3.20;1.03;;;21.60;46.10;;;;;;5031611;28;20045;-57
2022/04/20 10:20:34;;;;;;;2.92;1.13;;;21.60;46.20;;;;;;5030340;28;20545;-56
2022/04/20 10:23:00;;;;;;;3.78;1.00;;;21.60;46.20;;;;;;5014413;28;20049;-57
2022/04/20 10:25:26;;;;;;;2.05;0.80;;;21.60;46.30;;;;;;5022167;28;20076;-57
2022/04/20 10:28:06;;;;;;;1.80;0.82;;;21.60;46.40;;;;;;5029123;28;20053;-57
2022/04/20 10:31:09;;;;;;;2.03;0.90;;;21.60;46.60;;;;;;5013988;28;20050;-57
2022/04/20 10:33:34;;;;;;;3.63;0.65;;;21.60;46.60;;;;;;5031291;28;20054;-57
2022/04/20 10:36:03;;;;;;;2.28;0.70;;;21.60;46.60;;;;;;5030910;28;20048;-57
2022/04/20 10:38:31;;;;;;;1.77;0.90;;;21.60;46.80;;;;;;5031450;28;20083;-57
2022/04/20 10:40:57;;;;;;;2.80;0.85;;;21.70;46.90;;;;;;5030745;28;20084;-57
2022/04/20 10:43:23;;;;;;;5.10;0.80;;;21.70;47.10;;;;;;5032096;28;20523;-57
2022/04/20 10:46:05;;;;;;;2.70;0.82;;;21.70;47.20;;;;;;5031008;28;20068;-57
2022/04/20 10:48:51;;;;;;;4.28;0.80;;;21.70;47.20;;;;;;5031149;28;20046;-56
2022/04/20 10:51:30;;;;;;;1.50;0.80;;;21.70;47.30;;;;;;5031900;28;20042;-57
2022/04/20 10:54:24;;;;;;;3.03;0.80;;;21.70;47.20;;;;;;5030214;28;20187;-56
2022/04/20 10:57:09;;;;;;;3.33;0.80;;;21.70;47.40;;;;;;5036164;28;20046;-56
2022/04/20 10:59:34;;;;;;;1.20;0.80;;;21.70;47.30;;;;;;5036025;28;20117;-56
2022/04/20 11:02:03;;;;;;;1.92;0.80;;;21.70;47.40;;;;;;5034660;28;20125;-56
2022/04/20 11:04:32;;;;;;;;;;;21.70;47.40;;;;;;5035839;28;20481;-56
2022/04/20 11:07:04;;;;;;;2.72;0.60;;;21.70;47.60;;;;;;5035493;28;19921;-56
2022/04/20 11:09:42;;;;;;;1.50;0.75;;;21.70;47.70;;;;;;5035093;28;20116;-57
2022/04/20 11:21:07;;;;;;;2.45;0.70;;;21.80;48.10;;;;;;5030933;28;20050;-56
2022/04/20 11:24:05;;;;;;;2.17;0.70;;;21.80;48.20;;;;;;5023505;28;20045;-56
2022/04/20 11:26:31;;;;;;;2.20;0.70;;;21.80;47.90;;;;;;5022281;28;20045;-56
2022/04/20 11:29:08;;;;;;;2.55;0.70;;;21.80;48.00;;;;;;5022142;28;20045;-56
2022/04/20 11:31:36;;;;;;;2.58;0.70;;;21.80;48.00;;;;;;5023076;28;20056;-57
2022/04/20 11:34:01;;;;;;;2.72;0.60;;;21.80;48.00;;;;;;5024136;28;20052;-56
2022/04/20 11:36:27;;;;;;;2.38;0.70;;;21.80;48.10;;;;;;5024964;28;20045;-57
2022/04/20 11:38:53;;;;;;;2.38;0.85;;;21.80;48.20;;;;;;5021916;28;20091;-58
2022/04/20 11:41:19;;;;;;;3.00;0.82;;;21.80;48.20;;;;;;5024310;28;20517;-56
2022/04/20 11:43:45;;;;;;;3.95;0.82;;;21.80;48.30;;;;;;5022748;28;20041;-57
2022/04/20 11:46:11;;;;;;;2.25;0.77;;;21.80;48.30;;;;;;5025080;28;20049;-57
2022/04/20 11:48:49;;;;;;;3.75;0.85;;;21.80;48.30;;;;;;5025581;28;20049;-56
2022/04/20 11:51:15;;;;;;;;;;;21.90;48.40;;;;;;5024374;28;20087;-57
2022/04/20 11:53:45;;;;;;;3.85;0.63;;;21.80;48.30;;;;;;5039715;28;19921;-57
2022/04/20 11:56:11;;;;;;;2.35;0.70;;;21.80;48.30;;;;;;5023661;28;20058;-57
2022/04/20 11:58:40;;;;;;;1.40;0.70;;;21.90;48.40;;;;;;5023489;28;20120;-57
2022/04/20 12:01:10;;;;;;;1.35;0.68;;;21.90;48.50;;;;;;5025335;28;20053;-57
2022/04/20 12:03:37;;;;;;;1.63;0.60;;;21.90;48.50;;;;;;5024364;28;20045;-56
2022/04/20 12:06:04;;;;;;;2.55;0.73;;;21.90;48.40;;;;;;5022375;28;20126;-56
2022/04/20 12:08:31;;;;;;;1.58;0.68;;;21.90;48.50;;;;;;5023478;28;20115;-57
2022/04/20 12:10:57;;;;;;;3.03;0.93;;;21.90;48.50;;;;;;5023320;28;20037;-57
2022/04/20 12:13:28;;;;;;;9.77;1.33;;;21.90;48.60;;;;;;5022686;28;20469;-57
2022/04/20 12:16:08;;;;;;;2.63;0.80;;;21.90;48.70;;;;;;5022925;28;20116;-56
2022/04/20 12:18:40;;;;;;;2.03;0.60;;;22.00;48.70;;;;;;5024245;28;20033;-56
2022/04/20 12:21:07;;;;;;;1.60;0.60;;;21.90;48.70;;;;;;5023835;28;20045;-56
2022/04/20 12:23:34;;;;;;;3.72;0.77;;;22.00;48.70;;;;;;5023214;28;20507;-56
2022/04/20 12:26:02;;;;;;;2.08;0.70;;;22.00;48.80;;;;;;5023510;28;20577;-56
2022/04/20 12:28:43;;;;;;;1.17;0.60;;;22.00;48.70;;;;;;5023795;28;20038;-56
2022/04/20 12:31:12;;;;;;;3.17;0.75;;;22.00;48.90;;;;;;5023744;28;20531;-57
2022/04/20 12:33:39;;;;;;;1.63;0.63;;;22.00;48.80;;;;;;5019706;28;20129;-56
2022/04/20 12:36:08;;;;;;;1.80;0.50;;;22.00;48.90;;;;;;5023106;28;20109;-56
2022/04/20 12:38:46;;;;;;;4.05;0.90;;;22.00;48.90;;;;;;5022962;28;20076;-57
2022/04/20 12:41:37;;;;;;;1.98;0.57;;;22.00;48.90;;;;;;5023410;28;20168;-57
2022/04/20 12:44:41;;;;;;;1.48;0.65;;;22.00;49.00;;;;;;5024931;28;20049;-56
2022/04/20 12:47:14;;;;;;;0.90;0.52;;;22.00;49.10;;;;;;5022708;28;20120;-56
2022/04/20 12:49:44;;;;;;;1.63;0.70;;;22.00;49.10;;;;;;5021395;28;20116;-56
2022/04/20 12:52:12;;;;;;;2.92;0.63;;;22.00;49.10;;;;;;5023162;28;20053;-56
2022/04/20 12:54:37;;;;;;;2.17;0.68;;;22.00;49.00;;;;;;5023512;28;20037;-56
2022/04/20 13:03:03;;;;;;;1.73;0.60;;;22.00;48.80;;;;;;5023592;28;20045;-56
2022/04/20 13:05:33;;;;;;;1.67;0.65;;;22.10;48.80;;;;;;5023260;28;20040;-56
2022/04/20 13:07:59;;;;;;;1.98;0.60;;;22.10;48.80;;;;;;5021105;28;20245;-56
2022/04/20 13:10:24;;;;;;;2.45;0.60;;;22.10;48.70;;;;;;5023778;28;20124;-56
2022/04/20 13:12:51;;;;;;;1.80;0.60;;;22.10;48.70;;;;;;5018495;28;20486;-57
2022/04/20 13:15:17;;;;;;;2.67;0.60;;;22.10;48.70;;;;;;5012316;28;20045;-56
2022/04/20 13:17:42;;;;;;;1.42;0.60;;;22.20;48.70;;;;;;5013008;28;20049;-56
2022/04/20 13:20:08;;;;;;;2.85;0.55;;;22.20;48.70;;;;;;5013432;28;20045;-57
2022/04/20 13:22:33;;;;;;;5.13;0.95;;;22.20;48.60;;;;;;5012762;28;20444;-57
2022/04/20 13:27:55;;;;;;;1.40;0.65;;;22.20;48.30;;;;;;5022128;28;20406;-57
2022/04/20 13:30:25;;;;;;;2.65;1.10;;;22.30;48.30;;;;;;5021096;28;20117;-58
2022/04/20 13:32:51;;;;;;;1.95;0.73;;;22.30;48.30;;;;;;5021761;28;20041;-57